sensor_id;sensor_type;location;lat;lon;timestamp;P1;durP1;ratioP1;P2;durP2;ratioP2
72891;SDS011;61032;50.782;6.818;2024-03-23T00:55:18;10.05;;;4.65;;
72891;SDS011;61032;50.782;6.818;2024-03-23T00:56:18;13.23;;;3.95;;
72891;SDS011;61032;50.782;6.818;2024-03-23T00:57:19;12.60;;;4.78;;
72891;SDS011;61032;50.782;6.818;2024-03-23T00:58:19;9.93;;;4.05;;
72891;SDS011;61032;50.782;6.818;2024-03-23T00:59:19;12.48;;;5.95;;
72891;SDS011;61032;50.782;6.818;2024-03-23T01:00:22;10.63;;;4.85;;
72891;SDS011;61032;50.782;6.818;2024-03-23T01:01:22;12.63;;;5.40;;
72891;SDS011;61032;50.782;6.818;2024-03-23T01:02:23;15.40;;;4.70;;
72891;SDS011;61032;50.782;6.818;2024-03-23T01:03:23;11.00;;;4.25;;
72891;SDS011;61032;50.782;6.818;2024-03-23T01:04:23;15.18;;;5.30;;
72891;SDS011;61032;50.782;6.818;2024-03-23T01:05:24;15.00;;;5.50;;
72891;SDS011;61032;50.782;6.818;2024-03-23T01:06:24;14.52;;;4.72;;
72891;SDS011;61032;50.782;6.818;2024-03-23T01:07:24;14.63;;;4.85;;
72891;SDS011;61032;50.782;6.818;2024-03-23T01:08:25;11.02;;;4.65;;
72891;SDS011;61032;50.782;6.818;2024-03-23T01:09:25;11.98;;;4.70;;
72891;SDS011;61032;50.782;6.818;2024-03-23T01:10:26;15.82;;;5.20;;
72891;SDS011;61032;50.782;6.818;2024-03-23T01:11:26;11.25;;;4.47;;
72891;SDS011;61032;50.782;6.818;2024-03-23T01:12:27;13.40;;;4.55;;
72891;SDS011;61032;50.782;6.818;2024-03-23T01:13:28;15.68;;;5.68;;
72891;SDS011;61032;50.782;6.818;2024-03-23T01:14:28;13.85;;;5.03;;
72891;SDS011;61032;50.782;6.818;2024-03-23T01:15:28;11.98;;;5.65;;
72891;SDS011;61032;50.782;6.818;2024-03-23T01:16:29;15.23;;;5.07;;
72891;SDS011;61032;50.782;6.818;2024-03-23T01:17:29;13.38;;;4.82;;
72891;SDS011;61032;50.782;6.818;2024-03-23T01:18:30;14.75;;;5.65;;
72891;SDS011;61032;50.782;6.818;2024-03-23T01:19:30;12.80;;;5.20;;
72891;SDS011;61032;50.782;6.818;2024-03-23T01:20:30;11.55;;;5.13;;
72891;SDS011;61032;50.782;6.818;2024-03-23T01:21:31;13.35;;;4.28;;
72891;SDS011;61032;50.782;6.818;2024-03-23T01:22:31;10.10;;;4.50;;
72891;SDS011;61032;50.782;6.818;2024-03-23T01:23:33;12.10;;;4.45;;
72891;SDS011;61032;50.782;6.818;2024-03-23T01:24:33;12.70;;;4.97;;
72891;SDS011;61032;50.782;6.818;2024-03-23T01:25:33;12.05;;;5.70;;
72891;SDS011;61032;50.782;6.818;2024-03-23T01:26:34;11.90;;;5.15;;
72891;SDS011;61032;50.782;6.818;2024-03-23T01:27:34;19.27;;;5.60;;
72891;SDS011;61032;50.782;6.818;2024-03-23T01:28:34;16.70;;;5.70;;
72891;SDS011;61032;50.782;6.818;2024-03-23T01:29:35;12.77;;;5.57;;
72891;SDS011;61032;50.782;6.818;2024-03-23T01:30:35;11.27;;;4.53;;
72891;SDS011;61032;50.782;6.818;2024-03-23T01:31:36;11.35;;;4.65;;
72891;SDS011;61032;50.782;6.818;2024-03-23T01:32:37;14.50;;;5.60;;
72891;SDS011;61032;50.782;6.818;2024-03-23T01:33:37;12.27;;;5.35;;
72891;SDS011;61032;50.782;6.818;2024-03-23T01:34:37;9.02;;;4.07;;
72891;SDS011;61032;50.782;6.818;2024-03-23T01:35:38;13.73;;;4.45;;
72891;SDS011;61032;50.782;6.818;2024-03-23T01:36:38;12.73;;;4.72;;
72891;SDS011;61032;50.782;6.818;2024-03-23T01:37:39;11.38;;;5.30;;
72891;SDS011;61032;50.782;6.818;2024-03-23T01:38:40;11.98;;;5.35;;
72891;SDS011;61032;50.782;6.818;2024-03-23T01:39:40;12.13;;;4.78;;
72891;SDS011;61032;50.782;6.818;2024-03-23T01:40:41;12.57;;;5.55;;
72891;SDS011;61032;50.782;6.818;2024-03-23T01:41:41;10.50;;;5.13;;
72891;SDS011;61032;50.782;6.818;2024-03-23T01:42:42;14.90;;;5.13;;
72891;SDS011;61032;50.782;6.818;2024-03-23T01:43:54;12.90;;;5.25;;
72891;SDS011;61032;50.782;6.818;2024-03-23T01:44:55;10.40;;;4.93;;
72891;SDS011;61032;50.782;6.818;2024-03-23T01:45:56;13.23;;;5.85;;
72891;SDS011;61032;50.782;6.818;2024-03-23T01:46:56;9.60;;;4.85;;
72891;SDS011;61032;50.782;6.818;2024-03-23T01:47:57;10.88;;;4.88;;
72891;SDS011;61032;50.782;6.818;2024-03-23T01:48:59;13.57;;;5.78;;
72891;SDS011;61032;50.782;6.818;2024-03-23T01:49:59;11.88;;;5.32;;
72891;SDS011;61032;50.782;6.818;2024-03-23T01:51:00;11.38;;;5.85;;
72891;SDS011;61032;50.782;6.818;2024-03-23T01:52:01;15.23;;;5.95;;
72891;SDS011;61032;50.782;6.818;2024-03-23T01:53:02;12.65;;;4.70;;
72891;SDS011;61032;50.782;6.818;2024-03-23T01:54:06;9.10;;;3.53;;
72891;SDS011;61032;50.782;6.818;2024-03-23T01:55:07;9.63;;;3.67;;
72891;SDS011;61032;50.782;6.818;2024-03-23T01:56:08;8.98;;;3.35;;
72891;SDS011;61032;50.782;6.818;2024-03-23T01:57:08;8.52;;;3.33;;
72891;SDS011;61032;50.782;6.818;2024-03-23T01:58:10;4.03;;;2.25;;
72891;SDS011;61032;50.782;6.818;2024-03-23T01:59:10;5.30;;;2.47;;
72891;SDS011;61032;50.782;6.818;2024-03-23T02:00:11;4.25;;;1.98;;
72891;SDS011;61032;50.782;6.818;2024-03-23T02:01:12;8.27;;;2.38;;
72891;SDS011;61032;50.782;6.818;2024-03-23T02:02:12;5.75;;;2.20;;
72891;SDS011;61032;50.782;6.818;2024-03-23T02:03:25;5.85;;;2.10;;
72891;SDS011;61032;50.782;6.818;2024-03-23T02:04:26;5.38;;;2.15;;
72891;SDS011;61032;50.782;6.818;2024-03-23T02:05:27;5.28;;;1.60;;
72891;SDS011;61032;50.782;6.818;2024-03-23T02:06:27;4.75;;;1.65;;
72891;SDS011;61032;50.782;6.818;2024-03-23T02:07:28;4.97;;;1.98;;
72891;SDS011;61032;50.782;6.818;2024-03-23T02:08:28;4.47;;;1.92;;
72891;SDS011;61032;50.782;6.818;2024-03-23T02:09:31;4.00;;;2.03;;
72891;SDS011;61032;50.782;6.818;2024-03-23T02:10:32;4.82;;;1.88;;
72891;SDS011;61032;50.782;6.818;2024-03-23T02:11:32;3.65;;;1.42;;
72891;SDS011;61032;50.782;6.818;2024-03-23T02:12:32;5.43;;;1.60;;
72891;SDS011;61032;50.782;6.818;2024-03-23T02:13:33;3.20;;;1.40;;
72891;SDS011;61032;50.782;6.818;2024-03-23T02:14:33;4.05;;;1.50;;
72891;SDS011;61032;50.782;6.818;2024-03-23T02:15:34;4.22;;;1.90;;
72891;SDS011;61032;50.782;6.818;2024-03-23T02:16:34;6.45;;;1.95;;
72891;SDS011;61032;50.782;6.818;2024-03-23T02:17:35;5.07;;;1.77;;
72891;SDS011;61032;50.782;6.818;2024-03-23T02:18:36;4.93;;;2.40;;
72891;SDS011;61032;50.782;6.818;2024-03-23T02:19:37;5.28;;;2.25;;
72891;SDS011;61032;50.782;6.818;2024-03-23T02:20:38;7.10;;;2.55;;
72891;SDS011;61032;50.782;6.818;2024-03-23T02:21:38;5.43;;;1.95;;
72891;SDS011;61032;50.782;6.818;2024-03-23T02:22:39;4.70;;;2.08;;
72891;SDS011;61032;50.782;6.818;2024-03-23T02:23:39;4.18;;;1.75;;
72891;SDS011;61032;50.782;6.818;2024-03-23T02:24:40;2.70;;;1.52;;
72891;SDS011;61032;50.782;6.818;2024-03-23T02:25:40;10.88;;;2.05;;
72891;SDS011;61032;50.782;6.818;2024-03-23T02:26:40;4.32;;;1.52;;
72891;SDS011;61032;50.782;6.818;2024-03-23T02:27:41;5.53;;;1.65;;
72891;SDS011;61032;50.782;6.818;2024-03-23T02:28:41;1.88;;;1.20;;
72891;SDS011;61032;50.782;6.818;2024-03-23T02:29:42;4.15;;;2.03;;
72891;SDS011;61032;50.782;6.818;2024-03-23T02:30:42;5.55;;;1.35;;
72891;SDS011;61032;50.782;6.818;2024-03-23T02:31:43;2.83;;;1.35;;
72891;SDS011;61032;50.782;6.818;2024-03-23T02:32:43;5.63;;;1.77;;
72891;SDS011;61032;50.782;6.818;2024-03-23T02:33:44;1.92;;;1.13;;
72891;SDS011;61032;50.782;6.818;2024-03-23T02:34:44;3.08;;;1.40;;
72891;SDS011;61032;50.782;6.818;2024-03-23T02:35:44;6.45;;;1.35;;
72891;SDS011;61032;50.782;6.818;2024-03-23T02:36:45;8.07;;;1.45;;
72891;SDS011;61032;50.782;6.818;2024-03-23T02:37:46;3.60;;;0.80;;
72891;SDS011;61032;50.782;6.818;2024-03-23T02:38:48;2.10;;;1.00;;
72891;SDS011;61032;50.782;6.818;2024-03-23T02:39:48;2.55;;;0.98;;
72891;SDS011;61032;50.782;6.818;2024-03-23T02:40:49;3.75;;;0.93;;
72891;SDS011;61032;50.782;6.818;2024-03-23T02:41:49;4.43;;;0.73;;
72891;SDS011;61032;50.782;6.818;2024-03-23T02:42:50;2.13;;;0.88;;
72891;SDS011;61032;50.782;6.818;2024-03-23T02:43:50;3.15;;;0.98;;
72891;SDS011;61032;50.782;6.818;2024-03-23T02:44:51;1.63;;;0.50;;
72891;SDS011;61032;50.782;6.818;2024-03-23T02:45:51;3.47;;;1.35;;
72891;SDS011;61032;50.782;6.818;2024-03-23T02:46:52;2.63;;;1.42;;
72891;SDS011;61032;50.782;6.818;2024-03-23T02:47:52;1.73;;;0.47;;
72891;SDS011;61032;50.782;6.818;2024-03-23T02:48:53;3.85;;;1.02;;
72891;SDS011;61032;50.782;6.818;2024-03-23T02:49:54;6.00;;;1.13;;
72891;SDS011;61032;50.782;6.818;2024-03-23T02:50:55;4.50;;;1.08;;
72891;SDS011;61032;50.782;6.818;2024-03-23T02:51:55;2.00;;;0.73;;
72891;SDS011;61032;50.782;6.818;2024-03-23T02:52:56;4.47;;;1.02;;
72891;SDS011;61032;50.782;6.818;2024-03-23T02:53:56;3.67;;;0.73;;
72891;SDS011;61032;50.782;6.818;2024-03-23T02:54:57;5.60;;;1.13;;
72891;SDS011;61032;50.782;6.818;2024-03-23T02:55:58;5.28;;;1.92;;
72891;SDS011;61032;50.782;6.818;2024-03-23T02:56:58;6.82;;;1.02;;
72891;SDS011;61032;50.782;6.818;2024-03-23T02:57:59;3.50;;;1.52;;
72891;SDS011;61032;50.782;6.818;2024-03-23T02:59:02;7.95;;;1.10;;
72891;SDS011;61032;50.782;6.818;2024-03-23T03:00:02;5.82;;;1.23;;
72891;SDS011;61032;50.782;6.818;2024-03-23T03:01:03;7.22;;;1.63;;
72891;SDS011;61032;50.782;6.818;2024-03-23T03:02:04;2.05;;;1.05;;
72891;SDS011;61032;50.782;6.818;2024-03-23T03:03:05;6.70;;;1.38;;
72891;SDS011;61032;50.782;6.818;2024-03-23T03:04:05;5.22;;;1.13;;
72891;SDS011;61032;50.782;6.818;2024-03-23T03:05:06;2.83;;;0.95;;
72891;SDS011;61032;50.782;6.818;2024-03-23T03:06:06;5.13;;;1.38;;
72891;SDS011;61032;50.782;6.818;2024-03-23T03:07:07;4.55;;;1.40;;
72891;SDS011;61032;50.782;6.818;2024-03-23T03:08:07;6.55;;;1.25;;
72891;SDS011;61032;50.782;6.818;2024-03-23T03:09:08;2.85;;;0.95;;
72891;SDS011;61032;50.782;6.818;2024-03-23T03:10:08;5.00;;;0.80;;
72891;SDS011;61032;50.782;6.818;2024-03-23T03:11:11;5.85;;;0.95;;
72891;SDS011;61032;50.782;6.818;2024-03-23T03:12:11;3.10;;;0.90;;
72891;SDS011;61032;50.782;6.818;2024-03-23T03:13:11;3.88;;;1.13;;
72891;SDS011;61032;50.782;6.818;2024-03-23T03:14:12;4.13;;;0.75;;
72891;SDS011;61032;50.782;6.818;2024-03-23T03:15:13;5.30;;;1.35;;
72891;SDS011;61032;50.782;6.818;2024-03-23T03:16:13;3.67;;;0.93;;
72891;SDS011;61032;50.782;6.818;2024-03-23T03:17:14;1.58;;;0.90;;
72891;SDS011;61032;50.782;6.818;2024-03-23T03:18:15;6.63;;;1.17;;
72891;SDS011;61032;50.782;6.818;2024-03-23T03:19:15;2.75;;;0.80;;
72891;SDS011;61032;50.782;6.818;2024-03-23T03:20:16;11.70;;;2.55;;
72891;SDS011;61032;50.782;6.818;2024-03-23T03:21:18;2.92;;;0.95;;
72891;SDS011;61032;50.782;6.818;2024-03-23T03:22:19;2.45;;;1.10;;
72891;SDS011;61032;50.782;6.818;2024-03-23T03:23:19;6.28;;;1.38;;
72891;SDS011;61032;50.782;6.818;2024-03-23T03:24:20;5.35;;;1.10;;
72891;SDS011;61032;50.782;6.818;2024-03-23T03:25:21;1.50;;;0.52;;
72891;SDS011;61032;50.782;6.818;2024-03-23T03:26:22;3.95;;;1.27;;
72891;SDS011;61032;50.782;6.818;2024-03-23T03:27:22;5.45;;;1.10;;
72891;SDS011;61032;50.782;6.818;2024-03-23T03:28:23;4.30;;;1.33;;
72891;SDS011;61032;50.782;6.818;2024-03-23T03:29:24;5.72;;;1.70;;
72891;SDS011;61032;50.782;6.818;2024-03-23T03:30:24;4.75;;;1.13;;
72891;SDS011;61032;50.782;6.818;2024-03-23T03:31:26;2.88;;;0.65;;
72891;SDS011;61032;50.782;6.818;2024-03-23T03:32:26;5.97;;;1.13;;
72891;SDS011;61032;50.782;6.818;2024-03-23T03:33:27;5.07;;;1.08;;
72891;SDS011;61032;50.782;6.818;2024-03-23T03:34:28;4.07;;;0.75;;
72891;SDS011;61032;50.782;6.818;2024-03-23T03:35:29;3.20;;;1.42;;
72891;SDS011;61032;50.782;6.818;2024-03-23T03:36:30;3.65;;;0.68;;
72891;SDS011;61032;50.782;6.818;2024-03-23T03:37:30;3.63;;;0.90;;
72891;SDS011;61032;50.782;6.818;2024-03-23T03:38:30;4.28;;;1.38;;
72891;SDS011;61032;50.782;6.818;2024-03-23T03:39:31;4.45;;;1.05;;
72891;SDS011;61032;50.782;6.818;2024-03-23T03:40:31;3.25;;;0.80;;
72891;SDS011;61032;50.782;6.818;2024-03-23T03:41:32;4.88;;;1.33;;
72891;SDS011;61032;50.782;6.818;2024-03-23T03:42:32;2.67;;;0.73;;
72891;SDS011;61032;50.782;6.818;2024-03-23T03:43:33;5.35;;;0.82;;
72891;SDS011;61032;50.782;6.818;2024-03-23T03:44:33;3.08;;;0.70;;
72891;SDS011;61032;50.782;6.818;2024-03-23T03:45:34;6.18;;;0.98;;
72891;SDS011;61032;50.782;6.818;2024-03-23T03:46:34;4.50;;;1.00;;
72891;SDS011;61032;50.782;6.818;2024-03-23T03:47:34;7.82;;;0.95;;
72891;SDS011;61032;50.782;6.818;2024-03-23T03:48:35;4.75;;;1.77;;
72891;SDS011;61032;50.782;6.818;2024-03-23T03:49:35;3.33;;;1.08;;
72891;SDS011;61032;50.782;6.818;2024-03-23T03:50:36;4.00;;;1.35;;
72891;SDS011;61032;50.782;6.818;2024-03-23T03:51:36;4.28;;;1.25;;
72891;SDS011;61032;50.782;6.818;2024-03-23T03:52:36;6.60;;;1.48;;
72891;SDS011;61032;50.782;6.818;2024-03-23T03:53:37;2.80;;;0.82;;
72891;SDS011;61032;50.782;6.818;2024-03-23T03:54:37;5.20;;;1.88;;
72891;SDS011;61032;50.782;6.818;2024-03-23T03:55:38;4.05;;;1.13;;
72891;SDS011;61032;50.782;6.818;2024-03-23T03:56:38;4.25;;;1.42;;
72891;SDS011;61032;50.782;6.818;2024-03-23T03:57:38;5.30;;;1.00;;
72891;SDS011;61032;50.782;6.818;2024-03-23T03:58:39;4.05;;;1.00;;
72891;SDS011;61032;50.782;6.818;2024-03-23T03:59:40;3.50;;;1.40;;
72891;SDS011;61032;50.782;6.818;2024-03-23T04:00:40;6.68;;;1.52;;
72891;SDS011;61032;50.782;6.818;2024-03-23T04:01:41;6.10;;;1.50;;
72891;SDS011;61032;50.782;6.818;2024-03-23T04:02:41;5.00;;;1.52;;
72891;SDS011;61032;50.782;6.818;2024-03-23T04:03:42;6.18;;;1.02;;
72891;SDS011;61032;50.782;6.818;2024-03-23T04:04:43;5.63;;;0.90;;
72891;SDS011;61032;50.782;6.818;2024-03-23T04:05:49;4.38;;;1.27;;
72891;SDS011;61032;50.782;6.818;2024-03-23T04:07:00;2.70;;;1.02;;
72891;SDS011;61032;50.782;6.818;2024-03-23T04:08:01;6.55;;;1.50;;
72891;SDS011;61032;50.782;6.818;2024-03-23T04:09:01;6.38;;;1.55;;
72891;SDS011;61032;50.782;6.818;2024-03-23T04:10:02;3.70;;;1.40;;
72891;SDS011;61032;50.782;6.818;2024-03-23T04:11:07;3.35;;;0.80;;
72891;SDS011;61032;50.782;6.818;2024-03-23T04:12:07;3.70;;;0.65;;
72891;SDS011;61032;50.782;6.818;2024-03-23T04:13:08;3.60;;;0.88;;
72891;SDS011;61032;50.782;6.818;2024-03-23T04:14:08;5.30;;;1.33;;
72891;SDS011;61032;50.782;6.818;2024-03-23T04:15:09;5.63;;;1.33;;
72891;SDS011;61032;50.782;6.818;2024-03-23T04:16:10;4.18;;;0.60;;
72891;SDS011;61032;50.782;6.818;2024-03-23T04:17:10;3.25;;;0.98;;
72891;SDS011;61032;50.782;6.818;2024-03-23T04:18:11;7.85;;;1.48;;
72891;SDS011;61032;50.782;6.818;2024-03-23T04:19:11;5.68;;;1.10;;
72891;SDS011;61032;50.782;6.818;2024-03-23T04:20:12;2.95;;;0.80;;
72891;SDS011;61032;50.782;6.818;2024-03-23T04:21:16;3.97;;;0.90;;
72891;SDS011;61032;50.782;6.818;2024-03-23T04:22:17;4.80;;;1.10;;
72891;SDS011;61032;50.782;6.818;2024-03-23T04:23:17;4.70;;;1.30;;
72891;SDS011;61032;50.782;6.818;2024-03-23T04:24:18;5.43;;;0.82;;
72891;SDS011;61032;50.782;6.818;2024-03-23T04:25:20;4.75;;;0.95;;
72891;SDS011;61032;50.782;6.818;2024-03-23T04:26:21;4.20;;;1.23;;
72891;SDS011;61032;50.782;6.818;2024-03-23T04:27:21;4.88;;;1.40;;
72891;SDS011;61032;50.782;6.818;2024-03-23T04:28:22;4.43;;;1.20;;
72891;SDS011;61032;50.782;6.818;2024-03-23T04:29:22;5.03;;;0.82;;
72891;SDS011;61032;50.782;6.818;2024-03-23T04:30:23;3.00;;;0.90;;
72891;SDS011;61032;50.782;6.818;2024-03-23T04:31:25;4.07;;;1.15;;
72891;SDS011;61032;50.782;6.818;2024-03-23T04:32:25;5.95;;;1.55;;
72891;SDS011;61032;50.782;6.818;2024-03-23T04:33:26;3.20;;;0.70;;
72891;SDS011;61032;50.782;6.818;2024-03-23T04:34:26;3.22;;;0.77;;
72891;SDS011;61032;50.782;6.818;2024-03-23T04:35:26;2.55;;;1.08;;
72891;SDS011;61032;50.782;6.818;2024-03-23T04:36:27;8.00;;;1.23;;
72891;SDS011;61032;50.782;6.818;2024-03-23T04:37:27;4.75;;;1.10;;
72891;SDS011;61032;50.782;6.818;2024-03-23T04:38:28;4.32;;;1.25;;
72891;SDS011;61032;50.782;6.818;2024-03-23T04:39:28;9.80;;;1.25;;
72891;SDS011;61032;50.782;6.818;2024-03-23T04:40:29;3.03;;;0.90;;
72891;SDS011;61032;50.782;6.818;2024-03-23T04:41:29;3.42;;;1.10;;
72891;SDS011;61032;50.782;6.818;2024-03-23T04:42:30;4.93;;;1.27;;
72891;SDS011;61032;50.782;6.818;2024-03-23T04:43:31;4.25;;;1.40;;
72891;SDS011;61032;50.782;6.818;2024-03-23T04:44:31;3.88;;;1.10;;
72891;SDS011;61032;50.782;6.818;2024-03-23T04:45:32;3.58;;;0.73;;
72891;SDS011;61032;50.782;6.818;2024-03-23T04:46:32;2.80;;;0.90;;
72891;SDS011;61032;50.782;6.818;2024-03-23T04:47:33;6.88;;;1.23;;
72891;SDS011;61032;50.782;6.818;2024-03-23T04:48:35;7.18;;;1.55;;
72891;SDS011;61032;50.782;6.818;2024-03-23T04:49:36;4.13;;;0.55;;
72891;SDS011;61032;50.782;6.818;2024-03-23T04:50:36;4.40;;;1.13;;
72891;SDS011;61032;50.782;6.818;2024-03-23T04:51:37;5.50;;;0.88;;
72891;SDS011;61032;50.782;6.818;2024-03-23T04:52:37;6.55;;;1.27;;
72891;SDS011;61032;50.782;6.818;2024-03-23T04:53:38;3.78;;;1.00;;
72891;SDS011;61032;50.782;6.818;2024-03-23T04:54:38;4.00;;;1.20;;
72891;SDS011;61032;50.782;6.818;2024-03-23T04:55:42;5.85;;;1.42;;
72891;SDS011;61032;50.782;6.818;2024-03-23T04:56:43;5.03;;;1.13;;
72891;SDS011;61032;50.782;6.818;2024-03-23T04:57:44;8.00;;;0.85;;
72891;SDS011;61032;50.782;6.818;2024-03-23T04:58:47;3.35;;;0.93;;
72891;SDS011;61032;50.782;6.818;2024-03-23T04:59:48;3.45;;;1.10;;
72891;SDS011;61032;50.782;6.818;2024-03-23T05:00:48;6.40;;;1.60;;
72891;SDS011;61032;50.782;6.818;2024-03-23T05:01:53;2.13;;;0.98;;
72891;SDS011;61032;50.782;6.818;2024-03-23T05:02:54;3.60;;;0.90;;
72891;SDS011;61032;50.782;6.818;2024-03-23T05:03:54;4.78;;;1.15;;
72891;SDS011;61032;50.782;6.818;2024-03-23T05:04:54;7.45;;;0.90;;
72891;SDS011;61032;50.782;6.818;2024-03-23T05:05:55;5.25;;;1.02;;
72891;SDS011;61032;50.782;6.818;2024-03-23T05:06:55;2.95;;;1.05;;
72891;SDS011;61032;50.782;6.818;2024-03-23T05:07:56;7.43;;;1.40;;
72891;SDS011;61032;50.782;6.818;2024-03-23T05:08:56;6.40;;;1.90;;
72891;SDS011;61032;50.782;6.818;2024-03-23T05:09:56;4.97;;;0.90;;
72891;SDS011;61032;50.782;6.818;2024-03-23T05:10:57;7.13;;;1.27;;
72891;SDS011;61032;50.782;6.818;2024-03-23T05:11:57;4.75;;;1.00;;
72891;SDS011;61032;50.782;6.818;2024-03-23T05:12:58;4.70;;;0.75;;
72891;SDS011;61032;50.782;6.818;2024-03-23T05:13:58;4.40;;;0.75;;
72891;SDS011;61032;50.782;6.818;2024-03-23T05:14:59;4.53;;;1.70;;
72891;SDS011;61032;50.782;6.818;2024-03-23T05:15:59;5.80;;;1.90;;
72891;SDS011;61032;50.782;6.818;2024-03-23T05:16:59;4.25;;;1.20;;
72891;SDS011;61032;50.782;6.818;2024-03-23T05:18:00;3.53;;;0.95;;
72891;SDS011;61032;50.782;6.818;2024-03-23T05:19:01;5.03;;;1.67;;
72891;SDS011;61032;50.782;6.818;2024-03-23T05:20:01;4.25;;;1.30;;
72891;SDS011;61032;50.782;6.818;2024-03-23T05:21:03;3.22;;;1.13;;
72891;SDS011;61032;50.782;6.818;2024-03-23T05:22:03;4.50;;;1.38;;
72891;SDS011;61032;50.782;6.818;2024-03-23T05:23:04;6.28;;;1.60;;
72891;SDS011;61032;50.782;6.818;2024-03-23T05:24:05;4.25;;;0.90;;
72891;SDS011;61032;50.782;6.818;2024-03-23T05:25:05;5.13;;;1.42;;
72891;SDS011;61032;50.782;6.818;2024-03-23T05:26:06;7.15;;;1.50;;
72891;SDS011;61032;50.782;6.818;2024-03-23T05:27:06;4.03;;;1.20;;
72891;SDS011;61032;50.782;6.818;2024-03-23T05:28:06;3.97;;;1.17;;
72891;SDS011;61032;50.782;6.818;2024-03-23T05:29:07;2.90;;;1.15;;
72891;SDS011;61032;50.782;6.818;2024-03-23T05:30:10;3.63;;;1.35;;
72891;SDS011;61032;50.782;6.818;2024-03-23T05:31:11;3.95;;;1.08;;
72891;SDS011;61032;50.782;6.818;2024-03-23T05:32:11;7.00;;;1.33;;
72891;SDS011;61032;50.782;6.818;2024-03-23T05:33:13;4.97;;;1.33;;
72891;SDS011;61032;50.782;6.818;2024-03-23T05:34:13;3.05;;;1.33;;
72891;SDS011;61032;50.782;6.818;2024-03-23T05:35:13;7.57;;;1.30;;
72891;SDS011;61032;50.782;6.818;2024-03-23T05:36:14;5.00;;;1.10;;
72891;SDS011;61032;50.782;6.818;2024-03-23T05:37:14;3.17;;;1.20;;
72891;SDS011;61032;50.782;6.818;2024-03-23T05:38:14;2.90;;;1.13;;
72891;SDS011;61032;50.782;6.818;2024-03-23T05:39:15;7.13;;;1.73;;
72891;SDS011;61032;50.782;6.818;2024-03-23T05:40:16;6.43;;;1.25;;
72891;SDS011;61032;50.782;6.818;2024-03-23T05:41:16;4.65;;;1.17;;
72891;SDS011;61032;50.782;6.818;2024-03-23T05:42:17;4.35;;;1.65;;
72891;SDS011;61032;50.782;6.818;2024-03-23T05:43:18;4.22;;;1.20;;
72891;SDS011;61032;50.782;6.818;2024-03-23T05:44:18;4.45;;;1.25;;
72891;SDS011;61032;50.782;6.818;2024-03-23T05:45:19;6.82;;;1.52;;
72891;SDS011;61032;50.782;6.818;2024-03-23T05:46:19;4.25;;;1.10;;
72891;SDS011;61032;50.782;6.818;2024-03-23T05:47:20;5.18;;;1.65;;
72891;SDS011;61032;50.782;6.818;2024-03-23T05:48:20;6.35;;;1.23;;
72891;SDS011;61032;50.782;6.818;2024-03-23T05:49:21;6.45;;;1.60;;
72891;SDS011;61032;50.782;6.818;2024-03-23T05:50:21;5.30;;;1.77;;
72891;SDS011;61032;50.782;6.818;2024-03-23T05:51:22;4.10;;;1.95;;
72891;SDS011;61032;50.782;6.818;2024-03-23T05:52:22;6.43;;;1.52;;
72891;SDS011;61032;50.782;6.818;2024-03-23T05:53:25;5.40;;;1.23;;
72891;SDS011;61032;50.782;6.818;2024-03-23T05:54:25;6.43;;;1.25;;
72891;SDS011;61032;50.782;6.818;2024-03-23T05:55:26;6.75;;;1.60;;
72891;SDS011;61032;50.782;6.818;2024-03-23T05:56:27;4.82;;;1.27;;
72891;SDS011;61032;50.782;6.818;2024-03-23T05:57:27;6.53;;;1.52;;
72891;SDS011;61032;50.782;6.818;2024-03-23T05:58:28;4.90;;;1.05;;
72891;SDS011;61032;50.782;6.818;2024-03-23T05:59:28;5.97;;;1.67;;
72891;SDS011;61032;50.782;6.818;2024-03-23T06:00:29;4.15;;;1.58;;
72891;SDS011;61032;50.782;6.818;2024-03-23T06:01:29;4.15;;;0.93;;
72891;SDS011;61032;50.782;6.818;2024-03-23T06:02:32;5.40;;;1.35;;
72891;SDS011;61032;50.782;6.818;2024-03-23T06:03:33;4.10;;;0.80;;
72891;SDS011;61032;50.782;6.818;2024-03-23T06:04:35;5.65;;;1.30;;
72891;SDS011;61032;50.782;6.818;2024-03-23T06:05:38;5.40;;;1.65;;
72891;SDS011;61032;50.782;6.818;2024-03-23T06:06:39;4.03;;;1.30;;
72891;SDS011;61032;50.782;6.818;2024-03-23T06:07:39;4.72;;;1.13;;
72891;SDS011;61032;50.782;6.818;2024-03-23T06:08:40;3.38;;;1.00;;
72891;SDS011;61032;50.782;6.818;2024-03-23T06:09:41;4.60;;;1.10;;
72891;SDS011;61032;50.782;6.818;2024-03-23T06:10:41;4.63;;;1.30;;
72891;SDS011;61032;50.782;6.818;2024-03-23T06:11:42;4.53;;;1.35;;
72891;SDS011;61032;50.782;6.818;2024-03-23T06:12:42;6.35;;;1.20;;
72891;SDS011;61032;50.782;6.818;2024-03-23T06:13:43;5.25;;;1.00;;
72891;SDS011;61032;50.782;6.818;2024-03-23T06:14:43;4.53;;;1.08;;
72891;SDS011;61032;50.782;6.818;2024-03-23T06:15:43;3.30;;;1.23;;
72891;SDS011;61032;50.782;6.818;2024-03-23T06:16:45;2.20;;;0.82;;
72891;SDS011;61032;50.782;6.818;2024-03-23T06:17:46;3.22;;;1.00;;
72891;SDS011;61032;50.782;6.818;2024-03-23T06:18:46;6.47;;;1.70;;
72891;SDS011;61032;50.782;6.818;2024-03-23T06:19:46;6.53;;;1.42;;
72891;SDS011;61032;50.782;6.818;2024-03-23T06:20:47;5.60;;;1.13;;
72891;SDS011;61032;50.782;6.818;2024-03-23T06:21:47;6.75;;;1.92;;
72891;SDS011;61032;50.782;6.818;2024-03-23T06:22:48;5.95;;;1.30;;
72891;SDS011;61032;50.782;6.818;2024-03-23T06:23:50;7.57;;;0.95;;
72891;SDS011;61032;50.782;6.818;2024-03-23T06:24:52;4.18;;;1.40;;
72891;SDS011;61032;50.782;6.818;2024-03-23T06:25:52;4.85;;;1.50;;
72891;SDS011;61032;50.782;6.818;2024-03-23T06:26:53;6.35;;;1.00;;
72891;SDS011;61032;50.782;6.818;2024-03-23T06:27:53;4.93;;;1.55;;
72891;SDS011;61032;50.782;6.818;2024-03-23T06:28:54;4.78;;;1.50;;
72891;SDS011;61032;50.782;6.818;2024-03-23T06:29:55;5.40;;;1.17;;
72891;SDS011;61032;50.782;6.818;2024-03-23T06:30:56;1.95;;;1.20;;
72891;SDS011;61032;50.782;6.818;2024-03-23T06:31:56;5.45;;;1.25;;
72891;SDS011;61032;50.782;6.818;2024-03-23T06:32:57;6.85;;;1.23;;
72891;SDS011;61032;50.782;6.818;2024-03-23T06:33:57;5.03;;;2.13;;
72891;SDS011;61032;50.782;6.818;2024-03-23T06:34:58;6.15;;;1.67;;
72891;SDS011;61032;50.782;6.818;2024-03-23T06:35:58;6.18;;;1.15;;
72891;SDS011;61032;50.782;6.818;2024-03-23T06:36:58;2.53;;;1.25;;
72891;SDS011;61032;50.782;6.818;2024-03-23T06:37:59;3.17;;;1.30;;
72891;SDS011;61032;50.782;6.818;2024-03-23T06:38:59;4.28;;;1.15;;
72891;SDS011;61032;50.782;6.818;2024-03-23T06:40:00;4.13;;;1.20;;
72891;SDS011;61032;50.782;6.818;2024-03-23T06:41:03;4.47;;;1.30;;
72891;SDS011;61032;50.782;6.818;2024-03-23T06:42:04;6.20;;;1.50;;
72891;SDS011;61032;50.782;6.818;2024-03-23T06:43:05;3.50;;;1.42;;
72891;SDS011;61032;50.782;6.818;2024-03-23T06:44:05;6.57;;;1.80;;
72891;SDS011;61032;50.782;6.818;2024-03-23T06:45:06;5.88;;;1.30;;
72891;SDS011;61032;50.782;6.818;2024-03-23T06:46:07;3.55;;;0.93;;
72891;SDS011;61032;50.782;6.818;2024-03-23T06:47:07;5.63;;;1.98;;
72891;SDS011;61032;50.782;6.818;2024-03-23T06:48:07;6.30;;;1.13;;
72891;SDS011;61032;50.782;6.818;2024-03-23T06:49:08;8.90;;;1.65;;
72891;SDS011;61032;50.782;6.818;2024-03-23T06:50:09;7.15;;;1.83;;
72891;SDS011;61032;50.782;6.818;2024-03-23T06:51:10;5.53;;;1.58;;
72891;SDS011;61032;50.782;6.818;2024-03-23T06:52:10;3.88;;;1.65;;
72891;SDS011;61032;50.782;6.818;2024-03-23T06:53:11;4.75;;;1.83;;
72891;SDS011;61032;50.782;6.818;2024-03-23T06:54:12;5.72;;;1.42;;
72891;SDS011;61032;50.782;6.818;2024-03-23T06:55:12;4.63;;;1.60;;
72891;SDS011;61032;50.782;6.818;2024-03-23T06:56:13;8.57;;;1.40;;
72891;SDS011;61032;50.782;6.818;2024-03-23T06:57:13;6.65;;;1.85;;
72891;SDS011;61032;50.782;6.818;2024-03-23T06:58:14;3.67;;;1.42;;
72891;SDS011;61032;50.782;6.818;2024-03-23T06:59:14;7.15;;;1.95;;
72891;SDS011;61032;50.782;6.818;2024-03-23T07:00:15;6.55;;;2.08;;